Time;durP1;ratioP1;P1;durP2;ratioP2;P2;SDS_P1;SDS_P2;PMS_P1;PMS_P2;Temp;Humidity;BMP_temperature;BMP_pressure;BME280_temperature;BME280_humidity;BME280_pressure;Samples;Min_cycle;Max_cycle;Signal;HPM_P1;HPM_P2
2022/03/08 07:34:24;;;;;;;6.23;4.97;;;4.10;39.50;;;5.03;33.82;99174.38;5287336;23;97926;-76
2022/03/08 07:40:34;;;;;;;8.53;5.20;;;2.50;37.60;;;5.21;33.63;99173.06;4828415;29;125074;-77
2022/03/08 07:46:44;;;;;;;8.10;5.00;;;2.50;37.50;;;5.47;33.68;99185.78;4847440;29;115239;-77
2022/03/08 07:52:54;;;;;;;8.63;5.77;;;4.80;38.90;;;5.53;32.81;99192.94;4847152;29;125170;-76
2022/03/08 07:59:03;;;;;;;7.30;5.13;;;3.90;37.90;;;5.61;32.60;99186.09;4846324;29;115270;-88
2022/03/08 08:09:14;;;;;;;7.80;5.20;;;2.60;36.40;;;5.82;32.91;99199.84;4822008;29;124723;-90
2022/03/08 08:12:40;;;;;;;7.57;5.43;;;5.10;38.50;;;5.93;32.87;99204.25;4824596;29;115030;-87
2022/03/08 08:18:48;;;;;;;9.40;6.30;;;5.10;38.30;;;5.89;32.33;99195.75;4845082;29;124397;-86
2022/03/08 08:21:37;;;;;;;8.30;6.30;;;6.60;40.90;;;6.00;33.05;99199.38;4829880;29;124250;-84
2022/03/08 08:27:47;;;;;;;8.33;6.20;;;3.80;37.10;;;6.07;32.71;99194.44;4826101;29;115065;-89
2022/03/08 08:37:57;;;;;;;7.50;5.53;;;4.00;37.00;;;6.24;33.10;99179.63;4828204;29;115279;-88
2022/03/08 08:41:01;;;;;;;6.33;5.07;;;5.20;39.10;;;6.32;32.21;99190.88;4811795;29;114455;-89
2022/03/08 08:43:47;;;;;;;7.20;5.10;;;5.20;38.10;;;6.46;32.68;99206.78;4804214;29;123762;-85
2022/03/08 08:49:56;;;;;;;8.43;5.57;;;5.20;38.00;;;6.58;32.09;99185.34;4827854;29;115286;-84
2022/03/08 08:56:05;;;;;;;13.60;5.60;;;7.50;39.60;;;6.68;32.07;99176.28;4827525;29;125036;-86
2022/03/08 09:02:14;;;;;;;10.20;5.77;;;3.90;36.40;;;6.67;32.50;99164.47;4826510;29;115294;-86
2022/03/08 09:05:18;;;;;;;8.30;4.83;;;8.10;40.60;;;6.76;32.23;99168.28;4827528;29;113545;-87
2022/03/08 09:11:28;;;;;;;7.13;5.00;;;5.20;37.30;;;6.83;32.68;99154.28;4826445;29;123958;-81
2022/03/08 09:17:37;;;;;;;12.20;6.37;;;6.30;38.00;;;6.93;32.24;99156.16;4808987;29;115851;-86
2022/03/08 09:21:01;;;;;;;7.77;4.70;;;9.00;40.80;;;6.99;31.98;99161.38;4792153;29;124185;-85
2022/03/08 09:27:52;;;;;;;6.10;4.87;;;5.60;36.90;;;7.08;32.28;99137.69;4824680;29;115285;-88
2022/03/08 09:34:01;;;;;;;8.10;5.33;;;4.20;35.60;;;7.14;32.16;99146.75;4826796;29;124534;-90
2022/03/08 09:37:24;;;;;;;9.33;4.70;;;8.30;39.70;;;7.25;32.26;99172.25;4826275;29;124372;-89
2022/03/08 09:43:39;;;;;;;7.50;5.03;;;6.50;37.30;;;7.33;31.40;99166.16;4829648;29;114531;-89
2022/03/08 09:49:50;;;;;;;6.77;4.83;;;6.70;36.70;;;7.33;30.63;99165.34;4822129;29;124771;-87
2022/03/08 09:56:03;;;;;;;17.50;5.37;;;6.70;36.50;;;7.36;31.37;99165.63;4830335;29;115053;-83
2022/03/08 10:02:14;;;;;;;7.63;4.33;;;6.00;35.90;;;7.46;31.19;99143.56;4828896;29;124750;-89
2022/03/08 10:05:01;;;;;;;7.57;4.87;;;7.00;36.90;;;7.54;30.79;99139.41;4810446;29;113911;-87
2022/03/08 10:08:26;;;;;;;8.97;4.83;;;6.80;36.80;;;7.59;31.00;99130.31;4819897;29;113826;-90
2022/03/08 10:11:30;;;;;;;7.73;5.07;;;6.80;36.10;;;7.62;30.72;99140.72;4825331;29;124910;-89
2022/03/08 10:17:40;;;;;;;5.90;4.07;;;7.10;36.00;;;7.62;30.80;99130.53;4810694;29;116731;-87
2022/03/08 10:20:46;;;;;;;7.77;5.07;;;7.10;36.20;;;7.73;30.23;99125.78;4810016;29;115397;-89
2022/03/08 10:23:14;;;;;;;5.97;4.67;;;7.00;35.80;;;7.77;30.33;99120.56;4805838;29;124855;-88
2022/03/08 10:29:38;;;;;;;6.93;5.07;;;9.50;37.60;;;7.94;29.63;99110.78;4810264;29;114842;-84
2022/03/08 10:33:02;;;;;;;8.13;4.90;;;7.20;35.30;;;8.01;30.10;99115.97;4806186;29;114641;-90
2022/03/08 10:39:29;;;;;;;7.70;4.60;;;7.50;35.20;;;8.15;29.69;99105.13;4810521;29;126257;-88
2022/03/08 10:42:52;;;;;;;6.60;4.43;;;7.60;36.40;;;8.29;29.58;99102.50;4806187;29;115004;-89
2022/03/08 10:49:12;;;;;;;9.43;4.70;;;7.60;34.80;;;8.48;29.46;99108.13;4809565;29;125125;-89
2022/03/08 10:52:16;;;;;;;6.33;4.80;;;7.90;35.20;;;8.59;28.80;99104.97;4780222;29;123914;-88
2022/03/08 10:54:45;;;;;;;10.30;5.03;;;7.90;34.20;;;8.67;28.73;99100.75;4806703;29;113898;-90
2022/03/08 10:58:09;;;;;;;7.63;5.07;;;6.90;33.80;;;8.78;28.45;99112.47;4806439;29;113876;-90
2022/03/08 11:04:23;;;;;;;7.27;3.70;;;8.30;33.20;;;8.97;28.31;99088.59;4807761;29;124121;-89
2022/03/08 11:07:48;;;;;;;6.60;4.40;;;8.20;33.20;;;9.11;28.16;99088.69;4790636;29;113830;-89
2022/03/08 11:10:17;;;;;;;5.80;4.57;;;7.50;32.60;;;9.19;27.87;99082.50;4791085;29;113264;-80
2022/03/08 11:12:46;;;;;;;8.90;5.37;;;8.40;32.90;;;9.29;27.68;99073.25;4772892;29;124995;-89
2022/03/08 11:15:37;;;;;;;8.17;4.60;;;10.00;32.60;;;9.39;27.49;99077.81;4806768;29;123667;-87
2022/03/08 11:25:40;;;;;;;7.07;4.40;;;8.90;31.30;;;9.70;26.13;99067.97;4808817;29;125185;-89
2022/03/08 11:28:25;;;;;;;6.67;3.97;;;10.10;30.50;;;9.84;26.44;99064.44;4804052;29;123510;-89
2022/03/08 11:30:58;;;;;;;7.03;4.10;;;9.10;31.20;;;9.94;25.84;99056.81;4790481;29;114118;-90
2022/03/08 11:33:46;;;;;;;7.33;4.97;;;9.20;31.40;;;10.09;25.69;99061.25;4791376;29;114724;-89
2022/03/08 11:37:09;;;;;;;6.33;4.47;;;9.30;30.60;;;10.23;26.04;99054.94;4805188;29;124455;-91
2022/03/08 11:39:40;;;;;;;4.77;3.83;;;9.50;30.40;;;10.35;25.61;99049.78;4787292;29;124468;-91
2022/03/08 11:45:50;;;;;;;8.30;4.47;;;8.80;29.60;;;10.64;25.11;99054.19;4801247;29;114037;-89
2022/03/08 11:48:57;;;;;;;8.60;4.40;;;9.80;30.10;;;10.75;24.81;99048.16;4786694;29;123914;-90
2022/03/08 11:51:30;;;;;;;6.90;4.27;;;8.20;28.10;;;10.86;25.05;99037.72;4778480;29;123413;-91
2022/03/08 11:54:09;;;;;;;7.80;4.40;;;10.10;29.00;;;11.05;25.09;99046.69;4767562;29;96816;-89
2022/03/08 11:56:55;;;;;;;4.93;3.80;;;10.30;28.90;;;11.22;24.54;99048.00;4794337;29;113917;-90
2022/03/08 12:00:19;;;;;;;6.50;4.23;;;10.50;28.70;;;11.40;24.09;99052.56;4781183;29;124168;-91
2022/03/08 12:03:07;;;;;;;6.00;4.30;;;10.60;28.40;;;11.49;23.86;99050.69;4782623;29;123818;-91
2022/03/08 12:06:19;;;;;;;6.40;4.80;;;10.70;27.50;;;11.57;23.93;99038.03;4774186;29;113898;-89
2022/03/08 12:08:47;;;;;;;5.80;4.07;;;10.80;27.80;;;11.70;23.74;99033.59;4795119;29;114395;-90
2022/03/08 12:12:11;;;;;;;4.77;3.87;;;10.90;27.90;;;11.89;24.23;99037.03;4802840;29;123809;-90
2022/03/08 12:18:19;;;;;;;4.60;3.73;;;11.30;27.70;;;12.16;23.53;99029.69;4790968;29;116286;-90
2022/03/08 12:21:18;;;;;;;5.70;4.37;;;11.40;27.80;;;12.35;23.66;99032.22;4798056;29;114381;-89
2022/03/08 12:23:59;;;;;;;6.20;4.63;;;11.60;28.00;;;12.52;23.50;99025.94;4797314;29;124043;-90
2022/03/08 12:26:40;;;;;;;5.50;4.00;;;11.70;27.60;;;12.65;23.06;99032.53;4789943;29;124443;-89
2022/03/08 12:29:22;;;;;;;7.97;5.87;;;11.80;27.40;;;12.74;22.74;99028.66;4801427;29;114224;-89
2022/03/08 12:31:58;;;;;;;7.17;5.37;;;12.00;27.40;;;12.87;22.64;99026.91;4801867;29;114735;-89
2022/03/08 12:34:40;;;;;;;6.50;4.60;;;13.20;27.60;;;12.94;22.46;99026.41;4793396;29;123820;-90
2022/03/08 12:41:27;;;;;;;5.80;4.70;;;12.30;27.00;;;13.29;22.39;99018.19;4812259;29;115326;-89
2022/03/08 12:44:20;;;;;;;6.70;4.10;;;12.50;26.90;;;13.47;22.65;99028.16;4811432;29;113961;-90
2022/03/08 12:46:47;;;;;;;8.40;4.67;;;12.70;27.10;;;13.62;22.19;99018.50;4816435;29;124979;-89
2022/03/08 12:49:18;;;;;;;8.60;5.10;;;12.80;26.60;;;13.70;21.99;99021.31;4786249;29;122037;-90
2022/03/08 12:51:45;;;;;;;5.90;4.63;;;12.90;26.30;;;13.80;21.43;99022.91;4791654;29;114123;-89
2022/03/08 12:54:33;;;;;;;9.60;5.10;;;13.00;25.50;;;13.81;21.15;99020.94;4787055;29;113443;-91
2022/03/08 12:57:01;;;;;;;5.23;4.50;;;13.10;25.50;;;13.85;21.22;99011.63;4795447;29;123002;-91
2022/03/08 12:59:28;;;;;;;6.53;4.83;;;13.10;25.40;;;13.95;21.38;99016.03;4793650;29;122038;-90
2022/03/08 13:02:08;;;;;;;4.90;4.40;;;13.20;25.70;;;14.15;21.70;99015.31;4796682;29;114139;-90
2022/03/08 13:04:34;;;;;;;4.77;4.00;;;13.40;26.30;;;14.42;21.80;99018.03;4807182;29;113135;-91
2022/03/08 13:07:19;;;;;;;3.83;3.47;;;13.60;26.50;;;14.67;21.61;98997.69;4811088;29;123540;-92
2022/03/08 13:09:59;;;;;;;4.60;3.80;;;13.80;26.40;;;14.88;21.49;99000.50;4810381;29;123943;-91
2022/03/08 13:12:32;;;;;;;4.60;4.03;;;14.00;26.50;;;15.11;21.11;99006.59;4790229;29;115741;-92
2022/03/08 13:15:05;;;;;;;6.93;4.60;;;14.20;26.70;;;15.19;20.28;98993.78;4810803;29;115095;-91
2022/03/08 13:17:34;;;;;;;5.70;4.40;;;14.30;25.10;;;15.22;20.59;98984.75;4803018;29;124479;-90
2022/03/08 13:20:40;;;;;;;6.27;4.23;;;14.40;25.40;;;15.38;20.96;98985.75;4784631;29;123226;-91
2022/03/08 13:23:23;;;;;;;5.20;3.80;;;14.60;25.80;;;15.55;20.45;98986.75;4788561;29;113786;-90
2022/03/08 13:25:55;;;;;;;4.30;3.90;;;14.70;25.50;;;15.71;20.51;98990.56;4808608;29;113576;-91
2022/03/08 13:28:42;;;;;;;5.47;4.60;;;14.90;25.60;;;15.86;20.71;98987.16;4799561;29;122797;-91
2022/03/08 13:31:14;;;;;;;6.60;4.50;;;15.00;25.60;;;16.04;20.28;98986.97;4805735;29;123254;-90
2022/03/08 13:33:45;;;;;;;5.63;3.93;;;15.20;25.50;;;16.09;20.29;98979.22;4771131;29;114454;-89
2022/03/08 13:36:16;;;;;;;2.80;2.60;;;15.30;25.40;;;16.21;20.61;98980.41;4775615;29;114262;-89
2022/03/08 13:38:49;;;;;;;3.67;3.30;;;15.50;25.80;;;16.42;20.46;98977.53;4804083;29;123955;-90
2022/03/08 13:41:20;;;;;;;4.80;3.70;;;15.60;25.80;;;16.56;19.91;98980.78;4797633;29;122806;-90
2022/03/08 13:43:50;;;;;;;5.73;3.90;;;15.70;24.90;;;16.67;19.77;98981.97;4781069;29;114203;-89
2022/03/08 13:46:39;;;;;;;4.50;4.03;;;15.90;24.80;;;16.73;19.78;98974.16;4805358;29;113474;-91
2022/03/08 13:49:17;;;;;;;9.40;4.17;;;16.00;24.80;;;16.89;19.69;98971.50;4807708;29;122730;-89
2022/03/08 13:51:44;;;;;;;3.73;3.33;;;16.10;24.90;;;17.04;20.12;98970.81;4805665;29;123277;-89
2022/03/08 13:54:12;;;;;;;3.40;3.00;;;16.20;25.00;;;17.21;19.69;98966.94;4794493;29;113855;-92
2022/03/08 13:56:50;;;;;;;5.40;3.10;;;16.40;25.10;;;17.42;18.90;98980.72;4804990;29;114325;-88
2022/03/08 13:59:32;;;;;;;4.93;4.00;;;16.60;24.60;;;17.54;18.88;98982.66;4802914;29;124448;-90
2022/03/08 14:02:08;;;;;;;4.80;3.50;;;16.70;24.00;;;17.65;18.97;98984.59;4781355;29;123924;-91
2022/03/08 14:04:35;;;;;;;3.70;3.37;;;16.80;24.20;;;17.81;18.78;98978.25;4797902;29;114682;-91
2022/03/08 14:07:21;;;;;;;3.87;3.47;;;17.00;24.10;;;17.95;18.50;98978.69;4795471;29;114145;-90
2022/03/08 14:10:27;;;;;;;3.40;3.00;;;17.20;23.90;;;18.15;18.68;98985.19;4798285;29;122993;-91
2022/03/08 14:12:55;;;;;;;5.23;2.73;;;17.40;24.20;;;18.33;18.64;98977.28;4790836;29;123895;-90
2022/03/08 14:15:29;;;;;;;4.80;3.37;;;17.50;24.10;;;18.46;18.29;98970.44;4772269;29;113473;-90
2022/03/08 14:18:10;;;;;;;4.13;2.90;;;17.70;23.70;;;18.67;18.41;98977.72;4775986;29;112099;-92
2022/03/08 14:20:39;;;;;;;3.07;2.77;;;17.90;23.90;;;18.80;18.15;98976.47;4799508;29;124244;-91
2022/03/08 14:23:10;;;;;;;5.40;3.90;;;18.10;24.20;;;18.92;17.34;98969.97;4773397;29;124033;-90
2022/03/08 14:25:57;;;;;;;7.00;3.80;;;18.20;22.90;;;18.93;17.76;98977.19;4800342;29;113346;-90
2022/03/08 14:28:49;;;;;;;5.13;2.80;;;18.30;23.10;;;19.01;17.63;98972.56;4786126;29;112414;-90
2022/03/08 14:31:31;;;;;;;4.50;3.40;;;18.40;22.90;;;19.12;17.68;98973.63;4795788;29;122155;-90
2022/03/08 14:34:05;;;;;;;3.13;2.63;;;18.50;23.00;;;19.24;17.75;98970.72;4780796;29;123782;-91
2022/03/08 14:36:42;;;;;;;2.23;2.03;;;18.60;23.20;;;19.36;17.65;98973.38;4799937;29;113197;-91
2022/03/08 14:39:28;;;;;;;4.17;3.47;;;20.30;24.30;;;19.48;17.56;98957.59;4770869;29;113026;-91
2022/03/08 14:42:08;;;;;;;4.23;2.80;;;18.80;23.00;;;19.60;17.48;98969.47;4780628;29;125068;-92
2022/03/08 14:44:55;;;;;;;3.33;3.03;;;19.00;23.20;;;19.74;17.76;98963.38;4782725;29;123045;-90
2022/03/08 14:47:30;;;;;;;4.23;3.57;;;19.10;23.10;;;19.80;17.31;98970.31;4797314;29;114237;-90
2022/03/08 14:49:58;;;;;;;4.10;3.57;;;19.20;22.70;;;19.85;17.36;98969.19;4781237;29;113987;-91
2022/03/08 14:52:31;;;;;;;2.90;2.60;;;19.20;22.90;;;19.91;17.35;98967.72;4788536;29;124192;-90
2022/03/08 14:55:08;;;;;;;3.27;2.93;;;19.40;23.00;;;20.01;17.47;98974.72;4764608;29;124018;-90
2022/03/08 14:57:36;;;;;;;5.80;2.97;;;19.40;23.00;;;20.08;17.38;98975.66;4787185;29;115317;-90
2022/03/08 15:00:08;;;;;;;3.30;3.00;;;19.50;22.90;;;20.18;17.06;98979.88;4794294;29;114719;-91
2022/03/08 15:02:35;;;;;;;3.47;3.10;;;19.60;22.90;;;20.25;17.48;98974.34;4787819;29;124735;-90
2022/03/08 15:05:02;;;;;;;3.80;3.40;;;19.70;22.90;;;20.34;17.05;98982.56;4789194;29;123461;-91
2022/03/08 15:07:30;;;;;;;3.37;3.03;;;19.70;22.50;;;20.29;16.97;98978.06;4782095;29;113061;-90
2022/03/08 15:09:57;;;;;;;5.00;4.33;;;19.70;22.40;;;20.17;16.41;98983.84;4767456;29;113798;-89
2022/03/08 15:12:25;;;;;;;4.90;3.87;;;19.70;21.40;;;20.04;16.72;98986.03;4788857;29;124276;-93
2022/03/08 15:14:51;;;;;;;3.33;3.03;;;19.60;21.80;;;20.02;16.71;98979.97;4795475;29;124246;-92
2022/03/08 15:17:19;;;;;;;2.70;2.43;;;19.50;21.80;;;20.07;17.01;98967.63;4797041;29;113128;-91
2022/03/08 15:19:47;;;;;;;3.23;2.93;;;19.60;22.20;;;20.17;16.96;98975.41;4795716;29;114015;-91
2022/03/08 15:22:14;;;;;;;3.20;2.90;;;19.60;22.10;;;20.23;16.64;98965.53;4777134;29;123134;-91
2022/03/08 15:24:41;;;;;;;2.73;2.53;;;19.70;22.10;;;20.32;16.95;98970.09;4760109;29;122129;-92
2022/03/08 15:27:08;;;;;;;2.30;2.10;;;19.80;22.30;;;20.43;17.01;98980.31;4795579;29;114542;-89
2022/03/08 15:29:35;;;;;;;2.70;2.50;;;19.90;22.40;;;20.55;16.61;98972.91;4785358;29;113245;-89
2022/03/08 15:32:01;;;;;;;2.80;2.47;;;20.00;21.90;;;20.60;16.38;98967.78;4791571;29;123943;-89
2022/03/08 15:34:27;;;;;;;2.53;2.33;;;20.00;22.30;;;20.60;16.31;98970.59;4794006;29;123836;-88
2022/03/08 15:36:54;;;;;;;2.27;2.07;;;20.10;21.50;;;20.62;16.10;98971.03;4797306;29;113398;-91
2022/03/08 15:39:21;;;;;;;3.50;2.47;;;20.10;21.60;;;20.68;16.38;98963.09;4779117;29;114312;-89
2022/03/08 15:41:47;;;;;;;2.30;2.10;;;20.20;21.70;;;20.74;16.25;98973.66;4785372;29;123961;-89
2022/03/08 15:44:14;;;;;;;2.90;2.60;;;20.30;21.60;;;20.82;16.14;98968.13;4786008;29;123782;-88
2022/03/08 15:46:41;;;;;;;2.20;2.00;;;20.30;21.40;;;20.80;16.12;98976.13;4778376;29;114460;-90
2022/03/08 15:49:08;;;;;;;2.17;1.97;;;20.40;21.20;;;20.82;15.83;98962.50;4795226;29;115241;-89
2022/03/08 15:51:34;;;;;;;3.30;3.00;;;20.50;21.20;;;20.85;15.96;98976.63;4795159;29;124150;-87
2022/03/08 15:54:02;;;;;;;3.40;2.83;;;20.60;21.00;;;20.86;15.66;98972.63;4776138;29;122732;-94
2022/03/08 15:56:30;;;;;;;2.73;2.23;;;20.60;20.90;;;20.92;15.89;98954.25;4779806;29;114269;-89
2022/03/08 15:58:56;;;;;;;2.80;2.50;;;20.70;21.00;;;20.96;15.87;98963.56;4792553;29;114393;-91
2022/03/08 16:01:23;;;;;;;2.27;2.03;;;20.90;20.90;;;21.00;15.91;98960.78;4778173;29;123933;-91
2022/03/08 16:03:49;;;;;;;2.57;2.23;;;21.00;20.90;;;21.02;15.44;98950.00;4797632;29;122713;-90
2022/03/08 16:06:16;;;;;;;3.17;2.63;;;21.10;20.80;;;21.01;15.15;98959.63;4783446;29;114331;-90
2022/03/08 16:08:42;;;;;;;3.10;2.80;;;21.10;20.10;;;21.01;15.58;98954.00;4798654;29;114628;-90
2022/03/08 16:11:09;;;;;;;3.30;3.00;;;21.20;20.20;;;21.05;15.45;98954.84;4796423;29;124123;-92
2022/03/08 16:13:36;;;;;;;2.53;2.20;;;21.30;20.30;;;21.10;15.84;98957.34;4790298;29;124149;-89
2022/03/08 16:16:02;;;;;;;6.27;3.03;;;21.40;20.30;;;21.10;15.15;98951.72;4786013;29;114485;-89
2022/03/08 16:18:29;;;;;;;3.70;3.13;;;21.40;19.80;;;21.03;15.09;98947.97;4787100;29;114394;-90
2022/03/08 16:20:56;;;;;;;3.63;2.70;;;21.40;19.60;;;21.01;15.48;98958.78;4792589;29;123137;-89
2022/03/08 16:23:23;;;;;;;3.20;2.90;;;21.30;19.70;;;21.03;15.12;98968.47;4769557;29;124328;-89
2022/03/08 16:25:49;;;;;;;4.80;3.53;;;21.30;19.80;;;21.01;15.44;98954.00;4795740;29;114482;-90
2022/03/08 16:28:16;;;;;;;2.50;2.30;;;21.20;19.60;;;20.96;15.18;98955.13;4797434;29;114038;-88
2022/03/08 16:30:46;;;;;;;2.87;2.67;;;21.20;19.60;;;20.90;15.39;98955.81;4782936;29;123933;-89
2022/03/08 16:33:15;;;;;;;3.10;2.80;;;21.10;19.60;;;20.81;15.33;98949.66;4795563;29;122964;-88
2022/03/08 16:35:43;;;;;;;2.97;2.50;;;21.00;19.60;;;20.67;15.22;98967.91;4796423;29;115272;-89
2022/03/08 16:38:10;;;;;;;3.30;3.00;;;20.90;19.50;;;20.56;15.11;98955.69;4775990;29;114090;-91
2022/03/08 16:40:38;;;;;;;3.03;2.73;;;20.70;19.50;;;20.38;15.34;98962.97;4776888;29;124783;-88
2022/03/08 16:43:04;;;;;;;3.00;2.63;;;20.60;19.40;;;20.17;15.49;98964.19;4796684;29;124032;-90
2022/03/08 16:45:31;;;;;;;2.97;2.30;;;20.40;19.50;;;19.97;15.53;98965.44;4765555;29;113046;-90
2022/03/08 16:47:57;;;;;;;3.50;2.90;;;20.20;19.50;;;19.79;15.78;98973.47;4785559;29;114129;-89
2022/03/08 16:50:25;;;;;;;3.07;2.77;;;19.90;19.60;;;19.60;15.78;98977.06;4784688;29;124212;-90
2022/03/08 16:52:52;;;;;;;3.00;2.57;;;19.80;19.70;;;19.42;15.81;98974.72;4766104;29;123610;-91
2022/03/08 16:55:19;;;;;;;3.50;2.90;;;19.50;19.70;;;19.25;15.96;98985.53;4787355;29;117243;-91
2022/03/08 16:57:47;;;;;;;4.80;2.83;;;19.30;19.70;;;19.07;15.93;98976.72;4784100;29;113197;-90
2022/03/08 17:00:15;;;;;;;3.37;2.80;;;19.20;19.70;;;18.86;15.79;98983.44;4783054;29;124709;-92
2022/03/08 17:02:43;;;;;;;4.10;3.70;;;19.00;19.70;;;18.64;15.79;98986.84;4774612;29;122991;-91
2022/03/08 17:05:12;;;;;;;5.10;3.50;;;18.70;19.50;;;18.41;15.79;98993.09;4787094;29;113849;-92
2022/03/08 17:07:40;;;;;;;4.60;3.30;;;18.50;19.40;;;18.16;16.01;98995.22;4790493;29;114321;-89
2022/03/08 17:10:08;;;;;;;4.40;3.20;;;18.20;19.40;;;17.95;16.21;98998.25;4786042;29;124384;-91
2022/03/08 17:12:37;;;;;;;3.17;2.80;;;18.00;19.50;;;17.76;16.06;98992.47;4788452;29;123843;-90
2022/03/08 17:15:04;;;;;;;4.10;3.30;;;17.80;19.60;;;17.58;16.33;99001.16;4787732;29;114374;-90
2022/03/08 17:17:34;;;;;;;4.80;2.87;;;17.60;19.60;;;17.40;16.66;99000.63;4787804;29;113901;-91
2022/03/08 17:20:06;;;;;;;4.33;3.40;;;17.40;19.60;;;17.23;16.54;99010.09;4784130;29;124061;-89
2022/03/08 17:22:32;;;;;;;3.53;3.23;;;17.20;19.70;;;17.03;16.50;99011.03;4794441;29;123654;-91
2022/03/08 17:25:02;;;;;;;3.40;3.10;;;17.00;19.70;;;16.85;16.76;99010.47;4793253;29;115633;-88
2022/03/08 17:27:30;;;;;;;5.10;3.50;;;16.80;19.70;;;16.67;16.68;99009.84;4788396;29;115527;-90
2022/03/08 17:30:17;;;;;;;4.10;3.70;;;16.60;19.80;;;16.52;16.87;99019.75;4792977;29;124256;-90
2022/03/08 17:32:44;;;;;;;5.03;3.80;;;16.40;19.80;;;16.29;16.94;99026.88;4706148;29;123638;-90
2022/03/08 17:35:10;;;;;;;3.57;3.10;;;16.10;19.70;;;16.13;16.94;99026.72;4725274;29;114278;-90
2022/03/08 17:37:37;;;;;;;4.70;3.67;;;16.00;19.90;;;15.98;17.20;99032.94;4723635;29;115508;-91
2022/03/08 17:40:06;;;;;;;5.20;3.00;;;15.90;20.00;;;15.82;17.12;99022.44;4704730;29;122262;-90
2022/03/08 17:42:36;;;;;;;6.40;3.63;;;15.70;20.00;;;15.67;17.36;99040.56;4726511;29;122558;-91
2022/03/08 17:45:04;;;;;;;4.67;3.00;;;15.50;20.10;;;15.52;17.63;99043.16;4712733;29;114463;-89
2022/03/08 17:47:32;;;;;;;3.63;3.20;;;15.40;20.10;;;15.36;17.45;99040.97;4717422;29;113497;-89
2022/03/08 17:50:19;;;;;;;3.33;3.03;;;15.20;20.20;;;15.22;17.52;99048.75;4718489;29;122719;-89
2022/03/08 17:52:47;;;;;;;3.37;3.07;;;15.10;20.30;;;15.09;17.72;99052.59;4727807;29;123705;-90
2022/03/08 17:55:15;;;;;;;3.87;3.20;;;14.90;20.30;;;14.95;17.67;99056.44;4730565;29;114117;-90
2022/03/08 17:57:43;;;;;;;6.13;3.23;;;14.80;20.40;;;14.82;17.90;99053.91;4727473;29;113117;-90
2022/03/08 18:01:06;;;;;;;3.70;3.17;;;14.60;20.40;;;14.65;17.83;99071.47;4720658;29;123711;-90
2022/03/08 18:04:29;;;;;;;5.10;3.30;;;14.50;20.50;;;14.45;18.00;99071.00;4733277;29;123545;-90
2022/03/08 18:07:33;;;;;;;3.67;3.37;;;14.30;20.50;;;14.28;18.31;99076.63;4722509;29;113653;-90
2022/03/08 18:10:01;;;;;;;3.40;3.00;;;14.10;20.70;;;14.17;18.34;99076.16;4767848;29;113452;-91
2022/03/08 18:12:46;;;;;;;3.97;3.10;;;14.00;20.80;;;14.07;18.61;99068.97;4814292;29;123783;-89
2022/03/08 18:16:11;;;;;;;4.70;3.50;;;13.80;20.80;;;13.92;18.65;99077.81;4811432;29;123381;-89
2022/03/08 18:18:39;;;;;;;4.03;3.13;;;13.70;20.90;;;13.78;18.62;99082.69;4818656;29;114820;-90
2022/03/08 18:21:09;;;;;;;4.97;3.70;;;13.50;20.90;;;13.69;18.84;99082.72;4804260;29;115744;-91
2022/03/08 18:23:38;;;;;;;5.00;3.57;;;13.40;21.00;;;13.59;18.61;99081.06;4804802;29;123951;-91
2022/03/08 18:26:07;;;;;;;4.93;3.63;;;13.30;21.10;;;13.50;18.75;99079.44;4819632;29;123650;-89
2022/03/08 18:28:35;;;;;;;3.80;3.13;;;13.20;21.20;;;13.40;18.90;99069.47;4818633;29;114088;-89
2022/03/08 18:32:06;;;;;;;4.90;4.10;;;13.10;21.20;;;13.29;18.93;99080.03;4800353;29;113983;-89
2022/03/08 18:34:33;;;;;;;4.50;3.67;;;13.00;21.30;;;13.17;19.17;99086.22;4810401;29;124356;-89
2022/03/08 18:37:19;;;;;;;4.40;3.60;;;12.90;21.50;;;13.09;19.34;99088.97;4809417;29;122107;-91
2022/03/08 18:43:28;;;;;;;5.77;3.90;;;12.60;21.50;;;12.84;19.37;99094.06;4818716;29;114476;-90
2022/03/08 18:46:52;;;;;;;4.40;4.00;;;12.50;21.60;;;12.75;19.53;99090.47;4804536;29;121960;-89
2022/03/08 18:49:19;;;;;;;5.10;3.57;;;12.40;21.70;;;12.66;19.44;99089.63;4816813;29;123926;-90
2022/03/08 18:55:27;;;;;;;6.87;4.00;;;12.20;21.90;;;12.47;19.68;99098.97;4826436;29;114927;-89
2022/03/08 18:58:13;;;;;;;4.47;3.53;;;12.10;22.00;;;12.43;19.76;99097.97;4823358;29;124836;-89
2022/03/08 19:04:22;;;;;;;4.30;3.30;;;12.00;22.20;;;12.23;19.92;99092.97;4813227;29;115356;-89
2022/03/08 19:07:08;;;;;;;6.27;3.90;;;11.80;22.20;;;12.17;20.25;99089.50;4803907;29;113647;-90
2022/03/08 19:09:34;;;;;;;4.27;3.87;;;11.80;22.30;;;12.10;20.30;99089.94;4789454;29;123230;-90
2022/03/08 19:16:08;;;;;;;5.43;3.70;;;11.60;22.40;;;11.94;20.16;99100.56;4824119;29;116223;-90
2022/03/08 19:18:34;;;;;;;4.80;3.80;;;11.50;22.50;;;11.88;20.11;99101.84;4808510;29;112949;-90
2022/03/08 19:21:58;;;;;;;4.37;3.77;;;11.50;22.60;;;11.82;20.64;99103.06;4813529;29;122707;-90
2022/03/08 19:25:23;;;;;;;3.90;3.47;;;11.40;22.70;;;11.73;20.65;99104.94;4820700;29;125769;-90
2022/03/08 19:27:52;;;;;;;3.53;3.23;;;11.30;22.70;;;11.65;20.92;99105.69;4803048;29;114387;-90
2022/03/08 19:30:21;;;;;;;6.67;4.70;;;11.20;22.80;;;11.62;20.94;99107.13;4805068;29;112952;-88
2022/03/08 19:32:48;;;;;;;5.10;3.67;;;11.20;22.90;;;11.57;20.79;99098.94;4818317;29;123608;-88
2022/03/08 19:35:14;;;;;;;4.57;3.60;;;11.10;23.00;;;11.54;21.06;99102.31;4824062;29;123736;-90
2022/03/08 19:37:41;;;;;;;5.60;4.07;;;11.10;23.10;;;11.50;21.15;99104.91;4816652;29;114074;-90
2022/03/08 19:40:10;;;;;;;4.60;3.90;;;11.80;23.70;;;11.46;21.09;99098.34;4810739;29;113501;-88
2022/03/08 19:42:38;;;;;;;5.50;4.27;;;11.00;23.20;;;11.40;20.78;99096.81;4814910;29;123861;-90
2022/03/08 19:45:08;;;;;;;5.33;3.97;;;11.00;23.30;;;11.36;21.08;99100.50;4790350;29;123885;-87
2022/03/08 19:47:34;;;;;;;6.07;5.10;;;10.90;23.30;;;11.31;21.40;99103.38;4801049;29;113767;-87
2022/03/08 19:50:22;;;;;;;5.87;4.57;;;10.80;23.40;;;11.25;21.32;99103.50;4822942;29;114475;-91
2022/03/08 19:56:49;;;;;;;6.07;3.90;;;10.70;23.60;;;11.06;21.65;99109.16;4826448;29;124874;-87
2022/03/08 19:59:37;;;;;;;5.67;4.40;;;10.60;23.70;;;10.98;21.76;99112.63;4818636;29;114981;-87
2022/03/08 20:02:04;;;;;;;7.63;4.93;;;10.50;23.90;;;10.91;21.69;99106.72;4819465;29;113230;-86
2022/03/08 20:04:31;;;;;;;6.70;4.60;;;10.50;24.00;;;10.89;21.90;99113.69;4812830;29;123734;-87
2022/03/08 20:06:58;;;;;;;7.80;5.33;;;10.40;24.10;;;10.84;22.02;99111.81;4812585;29;123603;-88
2022/03/08 20:09:44;;;;;;;6.00;4.63;;;10.40;24.20;;;10.81;22.45;99107.72;4790830;29;113726;-89
2022/03/08 20:12:13;;;;;;;7.23;4.87;;;10.30;24.30;;;10.75;22.37;99108.16;4812933;29;115737;-86
2022/03/08 20:15:37;;;;;;;6.40;4.80;;;10.20;24.40;;;10.67;22.37;99106.91;4808198;29;122458;-89
2022/03/08 20:18:06;;;;;;;8.07;4.67;;;10.20;24.50;;;10.60;22.36;99117.53;4822049;29;124522;-89
2022/03/08 20:25:11;;;;;;;5.30;4.30;;;10.10;24.70;;;10.44;22.64;99121.69;4819265;29;115029;-87
2022/03/08 20:27:38;;;;;;;7.10;4.60;;;10.00;24.70;;;10.33;22.69;99118.31;4815546;29;124207;-86
2022/03/08 20:33:46;;;;;;;7.70;5.20;;;9.80;25.60;;;10.16;22.93;99129.88;4805170;29;115297;-89
2022/03/08 20:36:12;;;;;;;7.27;5.00;;;9.80;25.80;;;10.09;23.04;99134.97;4811162;29;115316;-89
2022/03/08 20:42:21;;;;;;;7.83;4.67;;;9.60;25.80;;;9.91;23.21;99151.25;4819779;29;124411;-87
2022/03/08 20:45:46;;;;;;;6.20;4.30;;;9.50;26.00;;;9.88;23.15;99151.84;4824331;29;114016;-89
2022/03/08 20:48:51;;;;;;;5.90;4.40;;;9.40;26.10;;;9.85;23.56;99154.38;4812582;29;115986;-89
2022/03/08 20:51:19;;;;;;;6.10;4.83;;;9.40;26.30;;;9.81;23.58;99156.13;4805777;29;123823;-88
2022/03/08 20:54:07;;;;;;;7.03;5.03;;;9.30;26.30;;;9.82;23.76;99152.22;4815201;29;123195;-89
2022/03/08 21:00:43;;;;;;;6.60;4.80;;;9.20;26.60;;;9.66;23.90;99160.72;4823398;29;114440;-92
2022/03/08 21:03:30;;;;;;;6.73;4.23;;;9.20;26.70;;;9.64;23.96;99156.59;4810511;29;126595;-90